createdAt,value
2018-03-28T00:00:54.528Z,40.77
2018-03-28T00:02:55.515Z,39.17
2018-03-28T00:04:57.265Z,42.77
2018-03-28T00:06:58.286Z,39.13
2018-03-28T00:08:59.285Z,38.07
2018-03-28T00:11:00.352Z,38.70
2018-03-28T00:13:01.348Z,37.00
2018-03-28T00:15:02.320Z,39.57
2018-03-28T00:17:03.302Z,37.70
2018-03-28T00:19:04.309Z,40.43
2018-03-28T00:21:05.301Z,40.50
2018-03-28T00:23:06.354Z,35.23
2018-03-28T00:25:07.332Z,38.80
2018-03-28T00:27:08.419Z,41.73
2018-03-28T00:29:10.190Z,40.27
2018-03-28T00:31:11.187Z,39.10
2018-03-28T00:33:12.191Z,39.80
2018-03-28T00:35:13.203Z,39.00
2018-03-28T00:37:14.221Z,37.23
2018-03-28T00:39:15.938Z,39.00
2018-03-28T00:41:16.954Z,36.37
2018-03-28T00:43:17.968Z,35.63
2018-03-28T00:45:19.779Z,38.00
2018-03-28T00:47:21.587Z,37.00
2018-03-28T00:49:22.655Z,35.73
2018-03-28T00:51:35.982Z,37.40
2018-03-28T00:53:37.769Z,36.80
2018-03-28T00:55:38.833Z,35.73
2018-03-28T00:57:39.971Z,33.17
2018-03-28T00:59:41.017Z,35.80
2018-03-28T01:01:42.011Z,36.53
2018-03-28T01:03:43.242Z,37.57
2018-03-28T01:05:44.243Z,36.10
2018-03-28T01:07:45.233Z,34.23
2018-03-28T01:09:46.221Z,38.50
2018-03-28T01:11:48.014Z,38.13
2018-03-28T01:13:49.163Z,36.20
2018-03-28T01:15:50.184Z,36.70
2018-03-28T01:17:51.202Z,38.97
2018-03-28T01:19:52.212Z,34.03
2018-03-28T01:21:53.246Z,36.53
2018-03-28T01:23:54.308Z,36.67
2018-03-28T01:25:55.327Z,36.20
2018-03-28T01:27:57.241Z,39.20
2018-03-28T01:29:58.259Z,35.93
2018-03-28T01:31:59.360Z,39.80
2018-03-28T01:34:01.782Z,40.20
2018-03-28T01:36:03.549Z,38.33
2018-03-28T01:38:04.548Z,39.00
2018-03-28T01:40:06.342Z,40.50
2018-03-28T01:42:07.365Z,39.17
2018-03-28T01:44:09.138Z,39.53
2018-03-28T01:46:10.135Z,41.20
2018-03-28T01:48:11.141Z,39.47
2018-03-28T01:50:13.165Z,42.63
2018-03-28T01:52:14.126Z,38.37
2018-03-28T01:54:15.135Z,39.93
2018-03-28T01:56:16.133Z,40.17
2018-03-28T01:58:17.886Z,39.47
2018-03-28T02:00:18.867Z,37.27
2018-03-28T02:02:19.874Z,40.63
2018-03-28T02:04:20.866Z,37.57
2018-03-28T02:06:21.895Z,41.17
2018-03-28T02:08:22.896Z,41.70
2018-03-28T02:10:23.971Z,40.30
2018-03-28T02:12:24.958Z,43.13
2018-03-28T02:14:26.725Z,43.87
2018-03-28T02:16:27.726Z,42.97
2018-03-28T02:18:29.473Z,41.67
2018-03-28T02:20:30.457Z,41.73
2018-03-28T02:22:31.472Z,42.77
2018-03-28T02:24:32.451Z,44.87
2018-03-28T02:26:33.422Z,43.97
2018-03-28T02:28:34.449Z,45.60
2018-03-28T02:30:35.437Z,43.20
2018-03-28T02:32:36.424Z,43.50
2018-03-28T02:34:38.149Z,42.60
2018-03-28T02:36:39.157Z,46.97
2018-03-28T02:38:40.140Z,43.87
2018-03-28T02:40:41.124Z,44.67
2018-03-28T02:42:42.883Z,45.60
2018-03-28T02:44:43.875Z,44.20
2018-03-28T02:46:44.864Z,44.13
2018-03-28T02:48:45.856Z,44.60
2018-03-28T02:50:46.863Z,43.20
2018-03-28T02:52:47.863Z,43.20
2018-03-28T02:54:48.840Z,44.00
2018-03-28T02:56:49.808Z,41.40
2018-03-28T02:58:50.864Z,42.80
2018-03-28T03:00:51.868Z,46.10
2018-03-28T03:02:52.884Z,42.60
2018-03-28T03:04:53.886Z,40.80
2018-03-28T03:06:54.894Z,42.53
2018-03-28T03:08:55.888Z,41.90
2018-03-28T03:10:56.895Z,47.17
2018-03-28T03:12:57.940Z,46.63
2018-03-28T03:14:58.973Z,42.67
2018-03-28T03:16:59.968Z,43.93
2018-03-28T03:19:00.980Z,41.00
2018-03-28T03:21:01.981Z,40.77
2018-03-28T03:23:03.758Z,41.27
2018-03-28T03:25:04.788Z,41.77
2018-03-28T03:27:06.491Z,40.87
2018-03-28T03:29:07.501Z,43.90
2018-03-28T03:31:09.229Z,42.17
2018-03-28T03:33:10.237Z,40.17
2018-03-28T03:35:11.284Z,41.50
2018-03-28T03:37:12.288Z,40.90
2018-03-28T03:39:13.274Z,41.37
2018-03-28T03:41:14.244Z,41.47
2018-03-28T03:43:15.236Z,42.13
2018-03-28T03:45:16.220Z,41.47
2018-03-28T03:47:17.218Z,41.43
2018-03-28T03:49:18.202Z,44.13
2018-03-28T03:51:19.174Z,44.43
2018-03-28T03:53:20.177Z,42.43
2018-03-28T03:55:21.176Z,37.90
2018-03-28T03:57:22.173Z,40.33
2018-03-28T03:59:23.900Z,41.20
2018-03-28T04:01:24.866Z,42.10
2018-03-28T04:03:25.847Z,39.20
2018-03-28T04:05:26.850Z,40.60
2018-03-28T04:07:27.836Z,39.43
2018-03-28T04:09:29.545Z,43.17
2018-03-28T04:11:30.535Z,38.50
2018-03-28T04:13:32.235Z,42.73
2018-03-28T04:15:33.217Z,43.67
2018-03-28T04:17:34.202Z,41.87
2018-03-28T04:19:35.177Z,40.83
2018-03-28T04:21:36.180Z,41.57
2018-03-28T04:23:37.888Z,40.70
2018-03-28T04:25:38.864Z,38.93
2018-03-28T04:27:39.841Z,38.90
2018-03-28T04:29:41.551Z,39.57
2018-03-28T04:31:43.271Z,40.50
2018-03-28T04:33:44.998Z,40.80
2018-03-28T04:35:46.153Z,39.70
2018-03-28T04:37:47.124Z,39.33
2018-03-28T04:39:48.823Z,40.70
2018-03-28T04:41:49.808Z,37.77
2018-03-28T04:43:50.810Z,39.67
2018-03-28T04:45:51.815Z,41.53
2018-03-28T04:47:53.567Z,41.03
2018-03-28T04:49:54.573Z,38.90
2018-03-28T04:51:55.588Z,38.77
2018-03-28T04:53:57.300Z,40.00
2018-03-28T04:55:58.284Z,40.63
2018-03-28T04:57:59.278Z,37.53
2018-03-28T05:00:00.232Z,38.73
2018-03-28T05:02:01.212Z,38.77
2018-03-28T05:04:02.278Z,38.60
2018-03-28T05:06:03.181Z,38.50
2018-03-28T05:08:04.181Z,39.47
2018-03-28T05:10:05.893Z,38.17
2018-03-28T05:12:06.843Z,36.17
2018-03-28T05:14:07.844Z,37.10
2018-03-28T05:16:09.570Z,35.77
2018-03-28T05:18:10.585Z,36.93
2018-03-28T05:20:11.663Z,38.33
2018-03-28T05:22:12.675Z,35.67
2018-03-28T05:24:13.656Z,36.23
2018-03-28T05:26:14.666Z,36.03
2018-03-28T05:28:15.666Z,34.27
2018-03-28T05:30:16.643Z,35.57
2018-03-28T05:32:17.643Z,35.57
2018-03-28T05:34:18.688Z,36.90
2018-03-28T05:36:19.661Z,35.80
2018-03-28T05:38:21.434Z,35.83
2018-03-28T05:40:22.412Z,38.17
2018-03-28T05:42:23.366Z,37.13
2018-03-28T05:44:24.351Z,37.73
2018-03-28T05:46:25.308Z,35.70
2018-03-28T05:48:27.047Z,38.43
2018-03-28T05:50:28.089Z,37.63
2018-03-28T05:52:29.021Z,35.50
2018-03-28T05:54:30.072Z,35.30
2018-03-28T05:56:31.025Z,35.77
2018-03-28T05:58:32.010Z,35.70
2018-03-28T06:00:32.997Z,35.40
2018-03-28T06:02:34.028Z,34.67
2018-03-28T06:04:35.768Z,37.70
2018-03-28T06:06:37.521Z,34.67
2018-03-28T06:08:38.524Z,35.70
2018-03-28T06:10:39.509Z,36.17
2018-03-28T06:12:40.530Z,35.47
2018-03-28T06:14:41.532Z,37.37
2018-03-28T06:16:42.516Z,36.23
2018-03-28T06:18:43.473Z,34.87
2018-03-28T06:20:44.484Z,33.90
2018-03-28T06:22:45.461Z,40.10
2018-03-28T06:24:46.462Z,37.40
2018-03-28T06:26:47.459Z,36.37
2018-03-28T06:28:48.459Z,36.80
2018-03-28T06:30:49.472Z,32.73
2018-03-28T06:32:50.455Z,35.20
2018-03-28T06:34:51.461Z,36.47
2018-03-28T06:36:52.437Z,36.23
2018-03-28T06:38:54.161Z,35.60
2018-03-28T06:40:55.193Z,34.97
2018-03-28T06:42:56.165Z,36.17
2018-03-28T06:44:57.158Z,34.67
2018-03-28T06:46:58.131Z,35.57
2018-03-28T06:48:59.114Z,38.40
2018-03-28T06:51:00.122Z,37.33
2018-03-28T06:53:01.104Z,35.97
2018-03-28T06:55:02.107Z,36.60
2018-03-28T06:57:03.181Z,38.00
2018-03-28T06:59:04.177Z,35.57
2018-03-28T07:01:05.156Z,36.57
2018-03-28T07:03:06.136Z,38.03
2018-03-28T07:05:07.150Z,35.30
2018-03-28T07:07:08.166Z,38.57
2018-03-28T07:09:09.174Z,37.07
2018-03-28T07:11:10.126Z,35.60
2018-03-28T07:13:11.097Z,35.77
2018-03-28T07:15:12.064Z,37.30
2018-03-28T07:17:13.068Z,37.80
2018-03-28T07:19:14.095Z,37.40
2018-03-28T07:21:15.582Z,36.63
2018-03-28T07:23:18.188Z,35.63
2018-03-28T07:25:20.290Z,36.03
2018-03-28T07:27:21.403Z,37.67
2018-03-28T07:29:23.241Z,34.50
2018-03-28T07:31:26.445Z,39.37
2018-03-28T07:33:28.707Z,37.60
2018-03-28T07:35:29.725Z,35.37
2018-03-28T07:37:30.715Z,38.83
2018-03-28T07:39:31.788Z,37.37
2018-03-28T07:41:32.776Z,37.17
2018-03-28T07:43:33.873Z,36.83
2018-03-28T07:45:34.876Z,36.97
2018-03-28T07:47:35.848Z,37.83
2018-03-28T07:49:36.863Z,36.10
2018-03-28T07:51:37.843Z,37.93
2018-03-28T07:53:38.788Z,34.17
2018-03-28T07:55:39.783Z,39.60
2018-03-28T07:57:40.748Z,38.17
2018-03-28T07:59:41.773Z,38.67
2018-03-28T08:01:42.757Z,35.33
2018-03-28T08:03:43.735Z,38.00
2018-03-28T08:05:44.723Z,36.47
2018-03-28T08:07:45.758Z,38.77
2018-03-28T08:09:46.748Z,34.03
2018-03-28T08:11:47.731Z,36.67
2018-03-28T08:13:49.445Z,38.20
2018-03-28T08:15:50.458Z,35.60
2018-03-28T08:17:51.420Z,40.83
2018-03-28T08:19:53.172Z,40.40
2018-03-28T08:21:54.166Z,42.80
2018-03-28T08:23:55.152Z,40.87
2018-03-28T08:25:56.144Z,43.87
2018-03-28T08:27:57.104Z,42.20
2018-03-28T08:29:58.059Z,43.67
2018-03-28T08:31:59.027Z,40.70
2018-03-28T08:33:59.992Z,40.77
2018-03-28T08:36:01.000Z,41.47
2018-03-28T08:38:02.736Z,40.53
2018-03-28T08:40:03.705Z,41.27
2018-03-28T08:42:04.702Z,41.80
2018-03-28T08:44:05.687Z,41.00
2018-03-28T08:46:06.663Z,44.53
2018-03-28T08:48:08.395Z,39.57
2018-03-28T08:50:10.152Z,42.77
2018-03-28T08:52:11.223Z,39.97
2018-03-28T08:54:12.172Z,43.90
2018-03-28T08:56:13.174Z,43.20
2018-03-28T08:58:14.152Z,44.53
2018-03-28T09:00:15.123Z,43.57
2018-03-28T09:02:16.830Z,47.53
2018-03-28T09:04:17.812Z,45.67
2018-03-28T09:06:18.849Z,42.70
2018-03-28T09:08:19.991Z,47.17
2018-03-28T09:10:20.972Z,49.40
2018-03-28T09:12:21.973Z,51.00
2018-03-28T09:14:22.944Z,48.83
2018-03-28T09:16:23.942Z,48.30
2018-03-28T09:18:24.917Z,50.53
2018-03-28T09:20:25.914Z,49.40
2018-03-28T09:22:26.922Z,55.08
2018-03-28T09:24:27.954Z,55.77
2018-03-28T09:26:28.941Z,53.30
2018-03-28T09:28:29.937Z,55.60
2018-03-28T09:30:30.971Z,49.53
2018-03-28T09:32:31.960Z,49.40
2018-03-28T09:34:33.150Z,48.20
2018-03-28T09:36:34.148Z,48.03
2018-03-28T09:38:35.105Z,48.13
2018-03-28T09:40:36.113Z,51.20
2018-03-28T09:42:37.114Z,51.27
2018-03-28T09:44:38.862Z,51.23
2018-03-28T09:46:39.867Z,50.97
2018-03-28T09:48:43.805Z,50.83
2018-03-28T09:50:45.528Z,51.70
2018-03-28T09:52:46.535Z,55.60
2018-03-28T09:54:47.508Z,54.53
2018-03-28T09:56:48.782Z,52.67
2018-03-28T09:58:49.945Z,60.10
2018-03-28T10:00:56.941Z,65.00
2018-03-28T10:03:04.228Z,63.30
2018-03-28T10:05:05.321Z,60.77
2018-03-28T10:07:06.460Z,55.17
2018-03-28T10:09:07.525Z,62.53
2018-03-28T10:11:10.405Z,68.17
2018-03-28T10:13:14.441Z,61.60
2018-03-28T10:15:17.052Z,65.23
2018-03-28T10:17:18.910Z,68.77
2018-03-28T10:19:20.625Z,69.20
2018-03-28T10:23:27.273Z,65.63
2018-03-28T10:25:28.260Z,65.23
2018-03-28T10:27:29.233Z,64.47
2018-03-28T10:29:30.236Z,64.70
2018-03-28T10:31:31.219Z,63.40
2018-03-28T10:33:32.228Z,63.07
2018-03-28T10:35:33.972Z,61.20
2018-03-28T10:37:34.941Z,63.30
2018-03-28T10:39:35.925Z,59.60
2018-03-28T10:41:36.900Z,55.50
2018-03-28T10:43:37.905Z,58.40
2018-03-28T10:45:38.885Z,55.77
2018-03-28T10:47:39.873Z,58.87
2018-03-28T10:49:40.864Z,62.87
2018-03-28T10:51:41.824Z,54.67
2018-03-28T10:53:42.805Z,60.80
2018-03-28T10:55:43.759Z,60.83
2018-03-28T10:57:44.718Z,60.90
2018-03-28T10:59:45.667Z,61.30
2018-03-28T11:01:46.616Z,56.20
2018-03-28T11:03:47.562Z,57.97
2018-03-28T11:05:48.534Z,61.57
2018-03-28T11:07:49.522Z,58.17
2018-03-28T11:09:50.518Z,56.37
2018-03-28T11:11:51.505Z,52.67
2018-03-28T11:13:53.311Z,54.93
2018-03-28T11:15:54.404Z,52.60
2018-03-28T11:17:56.105Z,53.43
2018-03-28T11:19:57.087Z,53.93
2018-03-28T11:21:58.085Z,50.20
2018-03-28T11:23:59.098Z,52.47
2018-03-28T11:26:00.085Z,52.80
2018-03-28T11:28:01.125Z,46.13
2018-03-28T11:30:02.164Z,51.43
2018-03-28T11:32:03.175Z,52.10
2018-03-28T11:34:04.314Z,50.13
2018-03-28T11:36:05.308Z,53.57
2018-03-28T11:38:09.498Z,51.17
2018-03-28T11:40:10.560Z,50.70
2018-03-28T11:42:12.339Z,54.60
2018-03-28T11:44:14.133Z,49.97
2018-03-28T11:46:15.796Z,51.03
2018-03-28T11:48:17.566Z,53.90
2018-03-28T11:50:18.759Z,59.00
2018-03-28T11:52:19.732Z,50.37
2018-03-28T11:54:20.762Z,50.27
2018-03-28T11:56:22.482Z,49.10
2018-03-28T11:58:23.596Z,46.80
2018-03-28T12:00:25.291Z,47.40
2018-03-28T12:02:26.293Z,47.37
2018-03-28T12:04:28.006Z,51.43
2018-03-28T12:06:28.976Z,51.10
2018-03-28T12:08:29.943Z,45.27
2018-03-28T12:10:31.656Z,44.50
2018-03-28T12:12:32.619Z,44.67
2018-03-28T12:14:33.641Z,45.50
2018-03-28T12:16:34.641Z,44.70
2018-03-28T12:18:35.601Z,38.70
2018-03-28T12:20:37.336Z,41.27
2018-03-28T12:22:38.370Z,39.93
2018-03-28T12:24:39.365Z,40.60
2018-03-28T12:26:41.085Z,38.37
2018-03-28T12:28:42.050Z,41.03
2018-03-28T12:30:43.052Z,39.10
2018-03-28T12:32:44.004Z,40.30
2018-03-28T12:34:45.013Z,38.30
2018-03-28T12:36:46.755Z,40.80
2018-03-28T12:38:47.722Z,40.07
2018-03-28T12:40:49.420Z,42.10
2018-03-28T12:42:50.380Z,44.23
2018-03-28T12:44:51.346Z,44.33
2018-03-28T12:46:52.345Z,39.30
2018-03-28T12:48:53.329Z,40.73
2018-03-28T12:50:54.287Z,41.40
2018-03-28T12:52:55.278Z,37.73
2018-03-28T12:54:56.249Z,40.70
2018-03-28T12:56:57.200Z,39.03
2018-03-28T12:58:58.172Z,42.30
2018-03-28T13:01:01.210Z,43.40
2018-03-28T13:03:02.289Z,42.50
2018-03-28T13:05:03.300Z,42.63
2018-03-28T13:07:04.256Z,43.90
2018-03-28T13:09:05.240Z,48.80
2018-03-28T13:11:06.292Z,48.20
2018-03-28T13:13:07.245Z,47.63
2018-03-28T13:15:08.230Z,47.10
2018-03-28T13:17:09.960Z,48.70
2018-03-28T13:19:10.941Z,48.47
2018-03-28T13:21:12.635Z,50.70
2018-03-28T13:23:13.616Z,46.97
2018-03-28T13:25:14.616Z,47.53
2018-03-28T13:27:15.597Z,44.80
2018-03-28T13:29:16.583Z,44.37
2018-03-28T13:31:17.543Z,45.07
2018-03-28T13:33:18.531Z,46.60
2018-03-28T13:35:19.508Z,47.40
2018-03-28T13:37:21.242Z,43.03
2018-03-28T13:39:22.187Z,43.77
2018-03-28T13:41:23.168Z,43.87
2018-03-28T13:43:24.860Z,44.83
2018-03-28T13:45:25.852Z,43.60
2018-03-28T13:47:26.854Z,42.70
2018-03-28T13:49:27.832Z,44.83
2018-03-28T13:51:28.799Z,42.40
2018-03-28T13:53:29.743Z,43.57
2018-03-28T13:55:30.692Z,47.00
2018-03-28T13:57:31.655Z,49.17
2018-03-28T13:59:33.376Z,52.87
2018-03-28T14:01:34.421Z,53.20
2018-03-28T14:03:35.392Z,49.23
2018-03-28T14:05:36.365Z,52.53
2018-03-28T14:07:38.163Z,56.87
2018-03-28T14:09:39.132Z,56.97
2018-03-28T14:11:40.092Z,53.77
2018-03-28T14:13:41.103Z,52.80
2018-03-28T14:15:42.072Z,51.23
2018-03-28T14:17:43.048Z,52.83
2018-03-28T14:19:44.037Z,50.80
2018-03-28T14:21:45.045Z,52.03
2018-03-28T14:23:45.978Z,49.67
2018-03-28T14:25:46.948Z,49.33
2018-03-28T14:27:49.394Z,47.23
2018-03-28T14:29:50.377Z,49.43
2018-03-28T14:31:52.097Z,50.13
2018-03-28T14:33:53.060Z,49.03
2018-03-28T14:35:54.055Z,48.53
2018-03-28T14:37:55.059Z,49.17
2018-03-28T14:39:56.020Z,48.40
2018-03-28T14:41:57.768Z,47.67
2018-03-28T14:43:58.741Z,47.50
2018-03-28T14:46:03.568Z,46.40
2018-03-28T14:48:05.289Z,44.63
2018-03-28T14:50:06.312Z,50.70
2018-03-28T14:52:07.312Z,46.67
2018-03-28T14:54:08.281Z,49.57
2018-03-28T14:56:09.260Z,45.57
2018-03-28T14:58:10.235Z,50.37
2018-03-28T15:00:11.265Z,48.90
2018-03-28T15:02:12.338Z,49.43
2018-03-28T15:04:13.290Z,47.40
2018-03-28T15:06:14.249Z,47.70
2018-03-28T15:08:16.453Z,49.63
2018-03-28T15:10:17.440Z,51.63
2018-03-28T15:12:18.383Z,47.13
2018-03-28T15:14:19.375Z,49.30
2018-03-28T15:16:21.105Z,44.27
2018-03-28T15:18:22.123Z,46.80
2018-03-28T15:20:23.656Z,47.13
2018-03-28T15:22:25.397Z,55.53
2018-03-28T15:24:27.105Z,51.30
2018-03-28T15:26:28.068Z,50.08
2018-03-28T15:28:29.047Z,45.80
2018-03-28T15:30:30.080Z,45.23
2018-03-28T15:32:31.051Z,43.00
2018-03-28T15:34:33.409Z,41.90
2018-03-28T15:36:34.376Z,39.57
2018-03-28T15:38:36.052Z,43.67
2018-03-28T15:40:38.113Z,37.83
2018-03-28T15:42:39.124Z,38.67
2018-03-28T15:44:40.123Z,40.13
2018-03-28T15:46:41.131Z,38.73
2018-03-28T15:48:42.087Z,39.50
2018-03-28T15:50:44.825Z,38.30
2018-03-28T15:52:45.897Z,39.47
2018-03-28T15:54:48.551Z,36.93
2018-03-28T15:57:25.633Z,37.40
2018-03-28T15:59:42.662Z,37.13
2018-03-28T16:01:44.446Z,37.83
2018-03-28T16:03:45.436Z,36.00
2018-03-28T16:05:47.196Z,36.60
2018-03-28T16:07:48.184Z,38.83
2018-03-28T16:09:49.204Z,35.53
2018-03-28T16:11:50.932Z,38.80
2018-03-28T16:13:51.928Z,41.00
2018-03-28T16:15:52.888Z,41.60
2018-03-28T16:17:53.875Z,42.03
2018-03-28T16:19:54.851Z,41.87
2018-03-28T16:21:56.573Z,41.87
2018-03-28T16:23:57.569Z,40.57
2018-03-28T16:25:58.560Z,40.80
2018-03-28T16:27:59.535Z,38.20
2018-03-28T16:30:00.521Z,40.17
2018-03-28T16:32:01.535Z,36.37
2018-03-28T16:36:15.730Z,37.80
2018-03-28T16:38:17.408Z,37.03
2018-03-28T16:40:18.348Z,39.47
2018-03-28T16:42:20.080Z,36.50
2018-03-28T16:44:21.050Z,38.00
2018-03-28T16:46:22.735Z,40.10
2018-03-28T16:48:23.707Z,36.10
2018-03-28T16:50:24.712Z,39.93
2018-03-28T16:52:25.711Z,37.53
2018-03-28T16:54:26.734Z,36.37
2018-03-28T16:56:27.699Z,38.90
2018-03-28T16:58:28.730Z,38.97
2018-03-28T17:00:29.673Z,38.17
2018-03-28T17:02:30.624Z,35.73
2018-03-28T17:04:31.569Z,36.47
2018-03-28T17:06:32.520Z,36.77
2018-03-28T17:08:33.467Z,35.10
2018-03-28T17:10:38.328Z,32.23
2018-03-28T17:12:39.311Z,34.47
2018-03-28T17:14:41.011Z,35.50
2018-03-28T17:16:41.981Z,37.90
2018-03-28T17:18:42.988Z,39.70
2018-03-28T17:20:43.960Z,44.03
2018-03-28T17:22:44.898Z,38.60
2018-03-28T17:24:45.837Z,39.97
2018-03-28T17:26:46.857Z,39.80
2018-03-28T17:28:47.800Z,38.70
2018-03-28T17:30:48.792Z,39.43
2018-03-28T17:32:49.796Z,38.00
2018-03-28T17:34:50.820Z,36.37
2018-03-28T17:36:52.572Z,35.33
2018-03-28T17:38:53.547Z,38.07
2018-03-28T17:40:55.259Z,38.00
2018-03-28T17:42:56.261Z,35.77
2018-03-28T17:44:57.208Z,37.10
2018-03-28T17:46:58.169Z,36.00
2018-03-28T17:48:59.167Z,39.40
2018-03-28T17:51:00.180Z,35.87
2018-03-28T17:53:01.170Z,38.47
2018-03-28T17:55:02.910Z,35.37
2018-03-28T17:57:03.923Z,35.53
2018-03-28T17:59:04.847Z,38.00
2018-03-28T18:01:05.817Z,35.03
2018-03-28T18:03:06.789Z,33.47
2018-03-28T18:05:07.764Z,35.00
2018-03-28T18:07:09.505Z,30.13
2018-03-28T18:09:10.485Z,35.50
2018-03-28T18:11:12.224Z,33.90
2018-03-28T18:13:13.197Z,30.77
2018-03-28T18:15:14.953Z,34.37
2018-03-28T18:17:15.923Z,34.87
2018-03-28T18:19:16.909Z,31.50
2018-03-28T18:21:18.016Z,33.17
2018-03-28T18:23:19.002Z,33.00
2018-03-28T18:25:20.034Z,34.20
2018-03-28T18:27:21.041Z,28.93
2018-03-28T18:29:22.789Z,32.07
2018-03-28T18:31:27.084Z,33.07
2018-03-28T18:33:28.077Z,31.87
2018-03-28T18:35:29.794Z,32.27
2018-03-28T18:37:30.849Z,32.90
2018-03-28T18:39:31.836Z,32.30
2018-03-28T18:41:33.619Z,32.43
2018-03-28T18:43:34.629Z,31.23
2018-03-28T18:45:36.379Z,33.20
2018-03-28T18:47:57.498Z,31.07
2018-03-28T18:49:58.528Z,30.70
2018-03-28T18:51:59.538Z,30.47
2018-03-28T18:54:00.721Z,31.57
2018-03-28T18:56:01.701Z,32.60
2018-03-28T18:58:03.133Z,32.30
2018-03-28T19:00:04.442Z,34.10
2018-03-28T19:02:05.479Z,31.20
2018-03-28T19:04:07.180Z,30.73
2018-03-28T19:06:08.164Z,32.00
2018-03-28T19:08:09.141Z,33.40
2018-03-28T19:10:10.116Z,32.70
2018-03-28T19:12:11.420Z,34.83
2018-03-28T19:14:14.299Z,35.73
2018-03-28T19:16:15.410Z,34.43
2018-03-28T19:18:16.425Z,32.73
2018-03-28T19:20:18.357Z,32.97
2018-03-28T19:22:19.619Z,34.57
2018-03-28T19:24:21.654Z,38.13
2018-03-28T19:26:22.666Z,35.50
2018-03-28T19:28:24.100Z,38.23
2018-03-28T19:30:27.840Z,37.53
2018-03-28T19:32:28.994Z,34.70
2018-03-28T19:34:31.218Z,40.17
2018-03-28T19:36:32.529Z,37.47
2018-03-28T19:38:33.752Z,37.77
2018-03-28T19:40:35.980Z,37.50
2018-03-28T19:42:37.689Z,39.80
2018-03-28T19:44:39.666Z,40.67
2018-03-28T19:46:41.805Z,40.80
2018-03-28T19:48:42.824Z,40.93
2018-03-28T19:50:43.784Z,39.53
2018-03-28T19:52:45.044Z,39.17
2018-03-28T19:54:46.214Z,32.83
2018-03-28T19:56:47.870Z,36.53
2018-03-28T19:58:52.789Z,34.70
2018-03-28T20:00:56.425Z,34.20
2018-03-28T20:03:01.831Z,33.40
2018-03-28T20:05:03.857Z,33.87
2018-03-28T20:07:10.978Z,33.07
2018-03-28T20:09:12.224Z,39.37
2018-03-28T20:11:13.920Z,35.80
2018-03-28T20:13:14.894Z,37.47
2018-03-28T20:15:15.895Z,33.97
2018-03-28T20:17:16.909Z,31.47
2018-03-28T20:19:18.712Z,34.07
2018-03-28T20:21:19.774Z,32.77
2018-03-28T20:23:21.589Z,33.60
2018-03-28T20:25:22.617Z,34.73
2018-03-28T20:27:23.604Z,34.23
2018-03-28T20:29:25.363Z,36.10
2018-03-28T20:31:27.088Z,34.60
2018-03-28T20:33:28.133Z,24.70
2018-03-28T20:35:29.115Z,30.07
2018-03-28T20:37:30.119Z,30.23
2018-03-28T20:39:31.156Z,29.53
2018-03-28T20:41:32.119Z,31.00
2018-03-28T20:43:33.388Z,31.83
2018-03-28T20:45:34.379Z,31.10
2018-03-28T20:47:35.343Z,33.37
2018-03-28T20:49:36.289Z,34.60
2018-03-28T20:51:37.268Z,33.70
2018-03-28T20:53:39.165Z,36.37
2018-03-28T20:55:40.928Z,37.83
2018-03-28T20:57:46.533Z,35.70
2018-03-28T20:59:47.519Z,36.70
2018-03-28T21:01:48.459Z,37.00
2018-03-28T21:03:49.472Z,37.90
2018-03-28T21:05:50.611Z,35.00
2018-03-28T21:07:51.840Z,33.00
2018-03-28T21:09:52.798Z,35.10
2018-03-28T21:11:53.867Z,36.40
2018-03-28T21:13:54.917Z,35.53
2018-03-28T21:15:56.062Z,34.60
2018-03-28T21:17:57.077Z,35.20
2018-03-28T21:19:58.080Z,35.20
2018-03-28T21:21:59.116Z,32.27
2018-03-28T21:24:00.103Z,31.67
2018-03-28T21:26:01.818Z,33.43
2018-03-28T21:28:02.775Z,31.00
2018-03-28T21:30:03.884Z,31.17
2018-03-28T21:32:04.879Z,32.13
2018-03-28T21:34:05.837Z,32.47
2018-03-28T21:36:06.902Z,31.60
2018-03-28T21:38:08.600Z,34.13
2018-03-28T21:40:09.688Z,32.73
2018-03-28T21:42:11.477Z,34.60
2018-03-28T21:44:12.473Z,32.27
2018-03-28T21:46:13.466Z,32.30
2018-03-28T21:48:14.528Z,32.93
2018-03-28T21:50:15.483Z,33.97
2018-03-28T21:52:17.180Z,29.47
2018-03-28T21:54:18.960Z,32.17
2018-03-28T21:56:20.873Z,34.03
2018-03-28T21:58:22.075Z,29.53
2018-03-28T22:00:23.974Z,31.83
2018-03-28T22:02:25.771Z,34.17
2018-03-28T22:04:26.803Z,32.23
2018-03-28T22:06:27.784Z,33.50
2018-03-28T22:08:29.525Z,33.27
2018-03-28T22:10:30.469Z,33.77
2018-03-28T22:12:32.184Z,33.23
2018-03-28T22:14:33.122Z,31.13
2018-03-28T22:16:34.059Z,30.23
2018-03-28T22:18:35.075Z,29.00
2018-03-28T22:20:36.020Z,31.37
2018-03-28T22:22:36.951Z,31.70
2018-03-28T22:24:38.921Z,30.77
2018-03-28T22:26:40.711Z,31.00
2018-03-28T22:28:41.709Z,33.70
2018-03-28T22:30:43.508Z,37.33
2018-03-28T22:32:44.465Z,35.47
2018-03-28T22:34:45.518Z,33.73
2018-03-28T22:36:46.515Z,36.10
2018-03-28T22:38:48.255Z,32.80
2018-03-28T22:40:49.336Z,33.80
2018-03-28T22:42:51.455Z,33.07
2018-03-28T22:44:52.976Z,34.50
2018-03-28T22:46:54.756Z,29.90
2018-03-28T22:48:55.820Z,26.37
2018-03-28T22:50:56.816Z,26.47
2018-03-28T22:52:57.742Z,24.43
2018-03-28T22:54:58.876Z,22.87
2018-03-28T22:56:59.908Z,21.37
2018-03-28T22:59:00.919Z,22.67
2018-03-28T23:01:02.712Z,19.80
2018-03-28T23:03:03.833Z,19.20
2018-03-28T23:05:04.990Z,21.70
2018-03-28T23:07:06.798Z,19.40
2018-03-28T23:09:07.852Z,22.30
2018-03-28T23:11:08.857Z,21.03
2018-03-28T23:13:10.027Z,18.00
2018-03-28T23:15:11.077Z,13.40
2018-03-28T23:17:12.096Z,9.80
2018-03-28T23:19:13.788Z,10.97
2018-03-28T23:21:14.743Z,12.07
2018-03-28T23:23:15.772Z,8.40
2018-03-28T23:25:16.789Z,9.53
2018-03-28T23:27:18.531Z,10.07
2018-03-28T23:29:19.551Z,9.07
2018-03-28T23:31:21.488Z,10.17
2018-03-28T23:33:23.292Z,7.97
2018-03-28T23:35:24.501Z,10.10
2018-03-28T23:37:25.505Z,10.20
2018-03-28T23:39:26.479Z,11.33
2018-03-28T23:41:27.410Z,11.17
2018-03-28T23:43:28.416Z,10.50
2018-03-28T23:45:29.468Z,12.67
2018-03-28T23:47:30.508Z,10.23
2018-03-28T23:49:31.552Z,11.30
2018-03-28T23:51:32.735Z,10.63
2018-03-28T23:53:34.004Z,7.90
2018-03-28T23:55:35.238Z,8.97
2018-03-28T23:57:36.317Z,9.90
2018-03-28T23:59:38.311Z,8.90
